createdAt,value
2019-04-22T00:00:50.148Z,41.10
2019-04-22T00:03:19.991Z,41.10
2019-04-22T00:06:10.139Z,41.00
2019-04-22T00:08:46.387Z,41.20
2019-04-22T00:11:18.143Z,41.20
2019-04-22T00:13:47.271Z,42.50
2019-04-22T00:16:07.193Z,42.30
2019-04-22T00:18:54.912Z,43.30
2019-04-22T00:21:14.041Z,42.90
2019-04-22T00:23:39.439Z,42.70
2019-04-22T00:26:12.641Z,42.60
2019-04-22T00:28:46.413Z,42.50
2019-04-22T00:31:21.260Z,42.60
2019-04-22T00:33:52.961Z,42.70
2019-04-22T00:36:23.520Z,42.80
2019-04-22T00:38:51.647Z,42.80
2019-04-22T00:41:42.810Z,42.90
2019-04-22T00:44:12.360Z,42.90
2019-04-22T00:46:46.417Z,43.00
2019-04-22T00:49:53.018Z,43.10
2019-04-22T00:51:44.776Z,43.20
2019-04-22T00:54:05.930Z,43.20
2019-04-22T00:56:39.461Z,43.30
2019-04-22T00:59:08.200Z,43.50
2019-04-22T01:01:36.906Z,43.40
2019-04-22T01:04:17.903Z,43.60
2019-04-22T01:06:30.692Z,43.60
2019-04-22T01:09:10.707Z,43.70
2019-04-22T01:11:53.963Z,45.80
2019-04-22T01:14:28.287Z,45.40
2019-04-22T01:16:53.753Z,45.10
2019-04-22T01:19:36.692Z,44.90
2019-04-22T01:22:13.328Z,44.90
2019-04-22T01:24:25.219Z,44.90
2019-04-22T01:26:50.769Z,44.90
2019-04-22T01:29:14.926Z,44.90
2019-04-22T01:31:38.067Z,45.00
2019-04-22T01:34:19.869Z,45.40
2019-04-22T01:36:55.823Z,45.20
2019-04-22T01:39:31.971Z,45.20
2019-04-22T01:42:12.171Z,45.30
2019-04-22T01:44:33.176Z,45.30
2019-04-22T01:46:58.702Z,45.40
2019-04-22T01:49:27.553Z,45.50
2019-04-22T01:54:35.419Z,45.70
2019-04-22T01:57:02.189Z,45.70
2019-04-22T01:59:19.912Z,45.80
2019-04-22T02:01:56.946Z,45.90
2019-04-22T02:04:32.391Z,45.90
2019-04-22T02:07:00.207Z,47.80
2019-04-22T02:09:31.596Z,47.80
2019-04-22T02:14:29.143Z,47.60
2019-04-22T02:16:56.998Z,47.90
2019-04-22T02:19:35.934Z,47.30
2019-04-22T02:21:48.847Z,47.30
2019-04-22T02:24:28.351Z,48.20
2019-04-22T02:26:48.334Z,48.20
2019-04-22T02:29:27.057Z,48.30
2019-04-22T02:31:59.017Z,48.30
2019-04-22T02:36:54.371Z,48.40
2019-04-22T02:39:17.469Z,48.30
2019-04-22T02:41:50.898Z,48.30
2019-04-22T02:44:20.333Z,48.30
2019-04-22T02:47:04.509Z,48.40
2019-04-22T02:49:25.166Z,48.40
2019-04-22T02:52:09.373Z,48.40
2019-04-22T02:56:48.009Z,48.40
2019-04-22T03:01:51.491Z,48.40
2019-04-22T03:09:25.609Z,48.60
2019-04-22T03:12:02.670Z,48.70
2019-04-22T03:14:25.586Z,49.30
2019-04-22T03:19:36.592Z,50.10
2019-04-22T03:21:57.626Z,49.90
2019-04-22T03:24:27.843Z,49.70
2019-04-22T03:30:45.278Z,49.60
2019-04-22T03:33:06.555Z,49.70
2019-04-22T03:40:26.748Z,49.70
2019-04-22T03:42:52.167Z,49.90
2019-04-22T03:47:45.738Z,50.00
2019-04-22T03:50:22.012Z,50.00
2019-04-22T03:52:35.210Z,50.10
2019-04-22T03:55:07.405Z,50.20
2019-04-22T03:57:48.873Z,50.20
2019-04-22T04:02:45.919Z,50.50
2019-04-22T04:05:09.984Z,50.50
2019-04-22T04:07:57.666Z,50.50
2019-04-22T04:10:30.014Z,51.20
2019-04-22T04:12:37.768Z,50.70
2019-04-22T04:15:13.622Z,50.70
2019-04-22T04:17:41.272Z,50.80
2019-04-22T04:25:24.780Z,51.50
2019-04-22T04:30:21.609Z,51.10
2019-04-22T04:42:42.693Z,51.50
2019-04-22T04:45:23.444Z,53.70
2019-04-22T04:53:02.627Z,52.90
2019-04-22T04:55:09.700Z,52.80
2019-04-22T05:00:32.711Z,52.60
2019-04-22T05:02:40.013Z,52.70
2019-04-22T05:05:12.111Z,52.70
2019-04-22T05:07:38.323Z,52.50
2019-04-22T05:10:36.886Z,52.50
2019-04-22T05:12:56.907Z,52.60
2019-04-22T05:15:27.020Z,52.70
2019-04-22T05:17:57.697Z,52.60
2019-04-22T05:30:34.264Z,52.60
2019-04-22T05:32:52.111Z,52.70
2019-04-22T05:35:20.592Z,51.70
2019-04-22T05:37:54.717Z,52.60
2019-04-22T05:40:22.018Z,51.70
2019-04-22T05:42:42.674Z,51.70
2019-04-22T05:45:17.344Z,51.80
2019-04-22T05:47:46.262Z,51.90
2019-04-22T05:52:51.571Z,51.80
2019-04-22T05:55:22.460Z,52.00
2019-04-22T05:57:54.875Z,52.00
2019-04-22T06:01:08.301Z,52.00
2019-04-22T06:03:08.590Z,52.00
2019-04-22T06:05:43.790Z,51.70
2019-04-22T06:08:13.351Z,51.60
2019-04-22T06:13:04.419Z,51.40
2019-04-22T06:15:54.362Z,51.10
2019-04-22T06:18:16.154Z,50.70
2019-04-22T06:20:51.810Z,50.50
2019-04-22T06:23:19.063Z,50.10
2019-04-22T06:28:22.273Z,49.50
2019-04-22T06:30:41.492Z,49.30
2019-04-22T06:33:15.188Z,49.10
2019-04-22T06:35:45.853Z,48.70
2019-04-22T06:43:20.103Z,47.90
2019-04-22T06:45:38.374Z,47.50
2019-04-22T06:48:18.927Z,47.00
2019-04-22T06:50:43.384Z,46.70
2019-04-22T06:53:30.133Z,46.40
2019-04-22T06:58:10.669Z,46.40
2019-04-22T07:00:42.993Z,45.60
2019-04-22T07:03:31.691Z,46.00
2019-04-22T07:05:41.241Z,45.20
2019-04-22T07:08:30.402Z,45.20
2019-04-22T07:10:46.183Z,44.80
2019-04-22T07:13:11.632Z,44.60
2019-04-22T07:18:15.771Z,44.40
2019-04-22T07:23:13.410Z,43.60
2019-04-22T07:25:40.570Z,44.20
2019-04-22T07:28:05.647Z,43.50
2019-04-22T07:30:54.674Z,43.30
2019-04-22T07:35:47.606Z,43.20
2019-04-22T07:38:10.805Z,43.00
2019-04-22T07:40:38.922Z,42.70
2019-04-22T07:43:05.453Z,42.30
2019-04-22T07:45:36.053Z,42.00
2019-04-22T07:48:13.001Z,41.70
2019-04-22T07:53:05.273Z,41.10
2019-04-22T07:55:35.219Z,40.90
2019-04-22T07:58:10.304Z,40.60
2019-04-22T08:00:35.699Z,40.30
2019-04-22T08:03:09.319Z,39.80
2019-04-22T08:08:08.436Z,39.00
2019-04-22T08:10:40.411Z,39.00
2019-04-22T08:13:05.729Z,39.00
2019-04-22T08:15:36.010Z,39.10
2019-04-22T08:18:06.936Z,38.70
2019-04-22T08:20:33.898Z,38.70
2019-04-22T08:25:38.847Z,38.70
2019-04-22T08:28:12.705Z,38.50
2019-04-22T08:30:44.550Z,38.50
2019-04-22T08:33:13.892Z,38.70
2019-04-22T08:35:52.167Z,39.40
2019-04-22T08:38:10.009Z,38.40
2019-04-22T08:40:43.297Z,38.50
2019-04-22T08:43:14.095Z,38.20
2019-04-22T08:45:38.979Z,38.00
2019-04-22T08:48:07.739Z,37.90
2019-04-22T08:50:42.502Z,37.70
2019-04-22T08:53:08.177Z,37.40
2019-04-22T08:55:40.514Z,37.30
2019-04-22T09:00:47.918Z,37.20
2019-04-22T09:03:04.452Z,36.70
2019-04-22T09:05:43.534Z,36.30
2019-04-22T09:08:13.669Z,36.40
2019-04-22T09:10:39.323Z,36.40
2019-04-22T09:13:05.889Z,36.30
2019-04-22T09:15:38.361Z,35.70
2019-04-22T09:18:08.447Z,35.50
2019-04-22T09:23:07.620Z,34.40
2019-04-22T09:25:34.342Z,34.60
2019-04-22T09:28:01.937Z,34.70
2019-04-22T09:33:11.117Z,34.50
2019-04-22T09:35:44.118Z,34.60
2019-04-22T09:38:19.198Z,34.30
2019-04-22T09:40:34.266Z,34.30
2019-04-22T09:43:02.427Z,34.50
2019-04-22T09:45:27.462Z,34.30
2019-04-22T09:48:08.403Z,34.20
2019-04-22T09:53:08.327Z,32.90
2019-04-22T09:55:34.474Z,33.00
2019-04-22T09:58:04.505Z,32.70
2019-04-22T10:00:43.267Z,32.50
2019-04-22T10:03:13.912Z,32.50
2019-04-22T10:05:40.718Z,32.50
2019-04-22T10:08:18.631Z,32.00
2019-04-22T10:11:02.124Z,31.90
2019-04-22T10:13:39.021Z,31.90
2019-04-22T10:15:59.150Z,32.00
2019-04-22T10:18:25.837Z,31.70
2019-04-22T10:20:54.165Z,31.20
2019-04-22T10:23:25.307Z,30.90
2019-04-22T10:25:53.696Z,30.50
2019-04-22T10:28:32.365Z,30.40
2019-04-22T10:30:53.511Z,29.30
2019-04-22T10:33:23.965Z,29.80
2019-04-22T10:35:32.434Z,30.10
2019-04-22T10:38:00.293Z,29.90
2019-04-22T10:40:36.514Z,29.90
2019-04-22T10:43:05.632Z,29.90
2019-04-22T10:45:34.494Z,29.70
2019-04-22T10:48:03.893Z,29.80
2019-04-22T10:50:43.053Z,29.50
2019-04-22T10:53:13.555Z,28.60
2019-04-22T10:55:43.480Z,28.80
2019-04-22T10:58:10.904Z,28.50
2019-04-22T11:00:39.642Z,28.40
2019-04-22T11:03:08.434Z,28.30
2019-04-22T11:05:37.939Z,28.40
2019-04-22T11:08:08.042Z,28.60
2019-04-22T11:10:50.562Z,28.50
2019-04-22T11:13:07.081Z,28.00
2019-04-22T11:15:35.129Z,27.70
2019-04-22T11:18:02.827Z,27.80
2019-04-22T11:20:31.392Z,27.60
2019-04-22T11:23:00.487Z,27.90
2019-04-22T11:25:28.243Z,27.20
2019-04-22T11:27:57.943Z,25.90
2019-04-22T11:30:28.141Z,27.00
2019-04-22T11:32:56.247Z,27.20
2019-04-22T11:35:25.761Z,27.40
2019-04-22T11:37:54.786Z,27.50
2019-04-22T11:40:30.041Z,27.50
2019-04-22T11:42:52.226Z,27.30
2019-04-22T11:45:21.519Z,27.50
2019-04-22T11:47:50.996Z,27.60
2019-04-22T11:50:19.953Z,27.40
2019-04-22T11:52:48.818Z,27.40
2019-04-22T11:55:17.016Z,26.90
2019-04-22T11:57:44.879Z,26.70
2019-04-22T12:00:14.703Z,26.90
2019-04-22T12:02:43.035Z,27.00
2019-04-22T12:05:11.715Z,27.10
2019-04-22T12:07:40.953Z,27.00
2019-04-22T12:10:17.893Z,27.00
2019-04-22T12:12:39.670Z,27.00
2019-04-22T12:15:08.557Z,26.40
2019-04-22T12:17:36.292Z,26.60
2019-04-22T12:20:08.696Z,26.60
2019-04-22T12:22:35.899Z,25.90
2019-04-22T12:25:06.363Z,25.50
2019-04-22T12:27:35.059Z,25.90
2019-04-22T12:30:03.109Z,26.10
2019-04-22T12:32:31.658Z,26.40
2019-04-22T12:34:59.828Z,26.40
2019-04-22T12:37:34.408Z,26.00
2019-04-22T12:39:58.194Z,26.10
2019-04-22T12:42:29.185Z,26.10
2019-04-22T12:44:58.373Z,26.00
2019-04-22T12:47:26.266Z,25.80
2019-04-22T12:50:06.863Z,26.00
2019-04-22T12:52:33.917Z,26.10
2019-04-22T12:54:58.680Z,26.10
2019-04-22T12:57:26.219Z,25.90
2019-04-22T12:59:57.440Z,26.20
2019-04-22T13:02:25.251Z,25.90
2019-04-22T13:04:54.318Z,26.00
2019-04-22T13:07:22.132Z,26.00
2019-04-22T13:09:49.638Z,26.00
2019-04-22T13:12:17.238Z,25.80
2019-04-22T13:14:48.893Z,25.30
2019-04-22T13:17:17.093Z,25.30
2019-04-22T13:19:45.096Z,25.40
2019-04-22T13:22:12.670Z,25.70
2019-04-22T13:24:41.598Z,25.80
2019-04-22T13:27:10.892Z,25.80
2019-04-22T13:29:39.264Z,25.90
2019-04-22T13:32:06.935Z,25.50
2019-04-22T13:34:40.391Z,25.30
2019-04-22T13:37:05.106Z,25.50
2019-04-22T13:39:32.885Z,25.40
2019-04-22T13:42:04.470Z,25.60
2019-04-22T13:44:31.358Z,25.00
2019-04-22T13:47:14.679Z,25.20
2019-04-22T13:50:17.836Z,24.70
2019-04-22T13:57:15.820Z,25.40
2019-04-22T13:59:33.247Z,25.20
2019-04-22T14:02:28.657Z,25.20
2019-04-22T14:04:58.858Z,25.30
2019-04-22T14:07:26.810Z,25.40
2019-04-22T14:09:56.093Z,25.20
2019-04-22T14:12:24.634Z,24.80
2019-04-22T14:14:52.591Z,24.90
2019-04-22T14:17:20.942Z,24.00
2019-04-22T14:19:48.557Z,23.90
2019-04-22T14:22:16.027Z,23.90
2019-04-22T14:24:44.916Z,24.10
2019-04-22T14:27:25.548Z,24.20
2019-04-22T14:29:42.027Z,24.20
2019-04-22T14:32:17.062Z,23.90
2019-04-22T14:34:39.975Z,23.80
2019-04-22T14:37:07.675Z,23.80
2019-04-22T14:39:35.746Z,23.80
2019-04-22T14:42:27.075Z,23.90
2019-04-22T14:47:27.850Z,23.50
2019-04-22T14:49:52.829Z,23.60
2019-04-22T14:52:27.616Z,23.60
2019-04-22T14:54:45.977Z,23.60
2019-04-22T14:57:15.078Z,23.50
2019-04-22T14:59:44.011Z,23.50
2019-04-22T15:02:12.143Z,23.60
2019-04-22T15:04:42.781Z,23.50
2019-04-22T15:07:10.638Z,23.50
2019-04-22T15:09:39.828Z,22.90
2019-04-22T15:12:16.409Z,23.10
2019-04-22T15:14:37.517Z,22.60
2019-04-22T15:17:31.349Z,22.70
2019-04-22T15:20:17.434Z,22.60
2019-04-22T15:22:46.382Z,22.60
2019-04-22T15:25:14.514Z,22.90
2019-04-22T15:27:41.946Z,23.10
2019-04-22T15:30:09.786Z,23.00
2019-04-22T15:32:39.024Z,23.20
2019-04-22T15:35:09.056Z,23.00
2019-04-22T15:37:37.280Z,23.30
2019-04-22T15:40:06.748Z,23.30
2019-04-22T15:42:39.640Z,23.20
2019-04-22T15:45:05.932Z,23.30
2019-04-22T15:47:34.756Z,23.50
2019-04-22T15:50:03.850Z,23.50
2019-04-22T15:52:42.014Z,23.60
2019-04-22T15:55:02.954Z,23.90
2019-04-22T15:57:31.070Z,24.10
2019-04-22T16:00:14.669Z,24.20
2019-04-22T16:02:29.812Z,24.30
2019-04-22T16:04:58.851Z,24.50
2019-04-22T16:07:27.595Z,23.60
2019-04-22T16:09:55.402Z,23.30
2019-04-22T16:12:30.357Z,22.60
2019-04-22T16:14:56.709Z,23.00
2019-04-22T16:17:24.861Z,23.30
2019-04-22T16:19:53.360Z,23.60
2019-04-22T16:22:24.933Z,23.90
2019-04-22T16:25:13.367Z,23.90
2019-04-22T16:27:42.788Z,24.00
2019-04-22T16:30:10.594Z,24.30
2019-04-22T16:32:39.085Z,24.10
2019-04-22T16:35:08.519Z,23.90
2019-04-22T16:37:37.123Z,23.90
2019-04-22T16:40:07.071Z,23.70
2019-04-22T16:42:43.275Z,23.30
2019-04-22T16:45:05.051Z,22.60
2019-04-22T16:47:33.323Z,22.30
2019-04-22T16:50:01.813Z,22.30
2019-04-22T16:52:30.302Z,22.70
2019-04-22T16:54:59.078Z,22.80
2019-04-22T16:57:28.128Z,23.10
2019-04-22T16:59:55.866Z,22.50
2019-04-22T17:02:43.404Z,21.30
2019-04-22T17:05:18.020Z,20.30
2019-04-22T17:07:45.714Z,19.50
2019-04-22T17:10:13.767Z,18.90
2019-04-22T17:12:50.737Z,18.40
2019-04-22T17:15:13.990Z,18.00
2019-04-22T17:17:41.275Z,17.70
2019-04-22T17:20:11.215Z,17.60
2019-04-22T17:22:39.740Z,17.30
2019-04-22T17:25:08.668Z,17.20
2019-04-22T17:27:37.035Z,15.70
2019-04-22T17:30:10.590Z,16.00
2019-04-22T17:32:39.767Z,15.20
2019-04-22T17:35:08.380Z,15.50
2019-04-22T17:37:37.785Z,15.60
2019-04-22T17:40:24.449Z,15.70
2019-04-22T17:42:57.619Z,15.60
2019-04-22T17:45:42.361Z,15.60
2019-04-22T17:48:40.663Z,15.60
2019-04-22T17:51:16.177Z,15.70
2019-04-22T17:53:40.270Z,16.40
2019-04-22T17:56:08.584Z,16.10
2019-04-22T17:58:42.431Z,17.00
2019-04-22T18:01:09.305Z,17.80
2019-04-22T18:03:25.838Z,18.50
2019-04-22T18:05:54.185Z,19.20
2019-04-22T18:08:34.900Z,19.70
2019-04-22T18:11:06.313Z,20.30
2019-04-22T18:13:39.482Z,20.90
2019-04-22T18:16:09.882Z,21.20
2019-04-22T18:18:41.594Z,21.30
2019-04-22T18:20:56.333Z,21.60
2019-04-22T18:23:20.860Z,22.30
2019-04-22T18:25:59.114Z,22.40
2019-04-22T18:28:39.592Z,22.70
2019-04-22T18:31:01.205Z,22.70
2019-04-22T18:33:31.888Z,23.00
2019-04-22T18:36:02.203Z,23.30
2019-04-22T18:38:44.392Z,23.40
2019-04-22T18:40:59.027Z,23.60
2019-04-22T18:43:35.263Z,23.80
2019-04-22T18:46:09.538Z,24.10
2019-04-22T18:48:31.311Z,24.40
2019-04-22T18:51:17.175Z,24.50
2019-04-22T18:54:00.147Z,25.50
2019-04-22T18:56:25.333Z,25.40
2019-04-22T18:58:52.750Z,25.40
2019-04-22T19:01:10.225Z,25.50
2019-04-22T19:03:49.713Z,25.60
2019-04-22T19:06:44.719Z,26.00
2019-04-22T19:09:05.585Z,27.00
2019-04-22T19:11:30.194Z,26.80
2019-04-22T19:16:38.677Z,27.10
2019-04-22T19:19:18.592Z,27.30
2019-04-22T19:21:25.615Z,27.40
2019-04-22T19:23:54.005Z,28.10
2019-04-22T19:26:35.819Z,28.20
2019-04-22T19:28:58.686Z,28.90
2019-04-22T19:31:26.980Z,29.50
2019-04-22T19:34:00.728Z,29.50
2019-04-22T19:36:25.979Z,29.60
2019-04-22T19:38:52.674Z,29.90
2019-04-22T19:41:24.335Z,30.00
2019-04-22T19:43:53.289Z,30.20
2019-04-22T19:46:19.489Z,30.40
2019-04-22T19:51:24.132Z,31.30
2019-04-22T19:53:51.228Z,31.40
2019-04-22T19:56:11.562Z,32.70
2019-04-22T19:58:44.424Z,32.50
2019-04-22T20:01:36.928Z,33.40
2019-04-22T20:04:41.670Z,33.20
2019-04-22T20:07:12.688Z,33.10
2019-04-22T20:09:43.721Z,33.20
2019-04-22T20:12:15.460Z,33.20
2019-04-22T20:14:43.737Z,33.50
2019-04-22T20:17:11.087Z,34.10
2019-04-22T20:19:45.457Z,34.10
2019-04-22T20:22:09.700Z,35.10
2019-04-22T20:24:28.209Z,34.80
2019-04-22T20:27:14.918Z,34.70
2019-04-22T20:29:44.137Z,35.50
2019-04-22T20:32:13.712Z,35.20
2019-04-22T20:34:44.374Z,35.80
2019-04-22T20:37:15.199Z,35.70
2019-04-22T20:39:44.339Z,35.50
2019-04-22T20:42:23.519Z,35.80
2019-04-22T20:44:39.692Z,35.70
2019-04-22T20:47:06.703Z,35.70
2019-04-22T20:49:44.398Z,35.60
2019-04-22T20:52:13.642Z,35.50
2019-04-22T20:54:40.655Z,35.20
2019-04-22T20:57:03.131Z,35.00
2019-04-22T20:59:33.247Z,34.70
2019-04-22T21:02:03.722Z,34.40
2019-04-22T21:04:26.076Z,34.40
2019-04-22T21:07:01.906Z,34.10
2019-04-22T21:09:33.345Z,34.00
2019-04-22T21:12:02.337Z,34.00
2019-04-22T21:14:28.808Z,34.10
2019-04-22T21:17:08.074Z,34.10
2019-04-22T21:19:41.646Z,34.20
2019-04-22T21:22:03.466Z,34.10
2019-04-22T21:24:29.612Z,34.20
2019-04-22T21:27:11.943Z,34.20
2019-04-22T21:29:30.683Z,34.20
2019-04-22T21:32:12.139Z,34.40
2019-04-22T21:34:32.234Z,34.40
2019-04-22T21:37:07.878Z,34.40
2019-04-22T21:39:33.429Z,34.90
2019-04-22T21:42:02.634Z,34.80
2019-04-22T21:44:31.842Z,35.00
2019-04-22T21:47:12.885Z,35.00
2019-04-22T21:49:35.872Z,34.90
2019-04-22T21:51:58.310Z,34.90
2019-04-22T21:54:31.587Z,35.00
2019-04-22T21:57:18.872Z,34.90
2019-04-22T21:59:43.318Z,35.00
2019-04-22T22:02:24.915Z,35.00
2019-04-22T22:04:44.109Z,35.20
2019-04-22T22:07:05.651Z,35.40
2019-04-22T22:09:50.713Z,35.50
2019-04-22T22:12:10.419Z,35.50
2019-04-22T22:14:46.382Z,35.70
2019-04-22T22:17:20.645Z,35.70
2019-04-22T22:19:43.856Z,36.00
2019-04-22T22:22:40.912Z,36.00
2019-04-22T22:24:46.385Z,36.20
2019-04-22T22:27:14.517Z,36.20
2019-04-22T22:32:20.998Z,36.30
2019-04-22T22:34:46.513Z,36.70
2019-04-22T22:37:07.569Z,36.80
2019-04-22T22:39:38.062Z,37.10
2019-04-22T22:41:52.033Z,37.00
2019-04-22T22:44:27.254Z,37.40
2019-04-22T22:47:15.632Z,37.50
2019-04-22T22:49:45.198Z,38.10
2019-04-22T22:52:31.795Z,37.60
2019-04-22T22:54:39.285Z,38.90
2019-04-22T22:57:17.458Z,38.70
2019-04-22T22:59:38.269Z,39.50
2019-04-22T23:02:09.370Z,39.20
2019-04-22T23:04:39.641Z,39.20
2019-04-22T23:07:11.448Z,39.20
2019-04-22T23:09:38.457Z,39.20
2019-04-22T23:12:12.096Z,39.30
2019-04-22T23:14:31.245Z,39.50
2019-04-22T23:16:52.920Z,39.60
2019-04-22T23:19:13.597Z,39.80
2019-04-22T23:21:49.376Z,40.00
2019-04-22T23:24:44.049Z,40.40
2019-04-22T23:27:24.539Z,40.40
2019-04-22T23:30:07.996Z,40.50
2019-04-22T23:32:35.289Z,40.60
2019-04-22T23:35:22.716Z,40.80
2019-04-22T23:37:54.365Z,41.00
2019-04-22T23:40:32.568Z,42.30
2019-04-22T23:42:53.018Z,42.10
2019-04-22T23:45:30.833Z,42.00
2019-04-22T23:47:44.889Z,42.00
2019-04-22T23:50:27.884Z,42.20
2019-04-22T23:52:53.368Z,42.30
2019-04-22T23:55:28.041Z,42.30
2019-04-22T23:57:59.802Z,42.60
